地図

経路データ

SID SEASON NUMBER BASIN SUBBASIN NAME ISO_TIME NATURE LAT LON WMO_WIND WMO_PRES WMO_AGENCY TRACK_TYPE DIST2LAND LANDFALL IFLAG USA_AGENCY USA_ATCF_ID USA_LAT USA_LON USA_RECORD USA_STATUS USA_WIND USA_PRES USA_SSHS USA_R34_NE USA_R34_SE USA_R34_SW USA_R34_NW USA_R50_NE USA_R50_SE USA_R50_SW USA_R50_NW USA_R64_NE USA_R64_SE USA_R64_SW USA_R64_NW USA_POCI USA_ROCI USA_RMW USA_EYE TOKYO_LAT TOKYO_LON TOKYO_GRADE TOKYO_WIND TOKYO_PRES TOKYO_R50_DIR TOKYO_R50_LONG TOKYO_R50_SHORT TOKYO_R30_DIR TOKYO_R30_LONG TOKYO_R30_SHORT TOKYO_LAND CMA_LAT CMA_LON CMA_CAT CMA_WIND CMA_PRES HKO_LAT HKO_LON HKO_CAT HKO_WIND HKO_PRES NEWDELHI_LAT NEWDELHI_LON NEWDELHI_GRADE NEWDELHI_WIND NEWDELHI_PRES NEWDELHI_CI NEWDELHI_DP NEWDELHI_POCI REUNION_LAT REUNION_LON REUNION_TYPE REUNION_WIND REUNION_PRES REUNION_TNUM REUNION_CI REUNION_RMW REUNION_R34_NE REUNION_R34_SE REUNION_R34_SW REUNION_R34_NW REUNION_R50_NE REUNION_R50_SE REUNION_R50_SW REUNION_R50_NW REUNION_R64_NE REUNION_R64_SE REUNION_R64_SW REUNION_R64_NW BOM_LAT BOM_LON BOM_TYPE BOM_WIND BOM_PRES BOM_TNUM BOM_CI BOM_RMW BOM_R34_NE BOM_R34_SE BOM_R34_SW BOM_R34_NW BOM_R50_NE BOM_R50_SE BOM_R50_SW BOM_R50_NW BOM_R64_NE BOM_R64_SE BOM_R64_SW BOM_R64_NW BOM_ROCI BOM_POCI BOM_EYE BOM_POS_METHOD BOM_PRES_METHOD NADI_LAT NADI_LON NADI_CAT NADI_WIND NADI_PRES WELLINGTON_LAT WELLINGTON_LON WELLINGTON_WIND WELLINGTON_PRES DS824_LAT DS824_LON DS824_STAGE DS824_WIND DS824_PRES TD9636_LAT TD9636_LON TD9636_STAGE TD9636_WIND TD9636_PRES TD9635_LAT TD9635_LON TD9635_WIND TD9635_PRES TD9635_ROCI NEUMANN_LAT NEUMANN_LON NEUMANN_CLASS NEUMANN_WIND NEUMANN_PRES MLC_LAT MLC_LON MLC_CLASS MLC_WIND MLC_PRES USA_GUST BOM_GUST BOM_GUST_PER REUNION_GUST REUNION_GUST_PER USA_SEAHGT USA_SEARAD_NE USA_SEARAD_SE USA_SEARAD_SW USA_SEARAD_NW STORM_SPEED STORM_DIR
2020140S05094 2020 27 SI WA MANGGA 2020-05-19 06:00:00 NR -5.10000 93.9000 main 673 673 O_____________ jtwc_sh SH272020 -5.10000 93.9000 DB 15 1010 -3 1005 170 30 8 259
2020140S05094 2020 27 SI WA MANGGA 2020-05-19 09:00:00 NR -5.17753 93.5050 main 716 716 P_____________ SH272020 -5.17753 93.5050 DB 15 1010 -3 1004 170 30 8 256
2020140S05094 2020 27 SI WA MANGGA 2020-05-19 12:00:00 NR -5.30000 93.1000 main 760 760 O_____________ jtwc_sh SH272020 -5.30000 93.1000 DB 15 1010 -3 1004 170 30 9 249
2020140S05094 2020 27 SI WA MANGGA 2020-05-19 15:00:00 NR -5.49252 92.6976 main 809 809 P_____________ SH272020 -5.49252 92.6976 DB 17 1007 -3 1005 180 35 8 240
2020140S05094 2020 27 SI WA MANGGA 2020-05-19 18:00:00 NR -5.70000 92.4000 main 849 849 O_____________ jtwc_sh SH272020 -5.70000 92.4000 DB 20 1005 -3 1006 190 40 6 227
2020140S05094 2020 27 SI WA MANGGA 2020-05-19 21:00:00 NR -5.86496 92.2900 main 871 871 P_____________ SH272020 -5.86496 92.2900 DB 20 1004 -3 1006 205 40 3 197
2020140S05094 2020 27 SI WA MANGGA 2020-05-20 00:00:00 NR -6.00000 92.3000 main 877 877 O_____________ jtwc_sh SH272020 -6.00000 92.3000 DB 20 1004 -3 1006 220 40 2 172
2020140S05094 2020 27 SI WA MANGGA 2020-05-20 03:00:00 NR -6.10000 92.3275 main 883 874 P_____________ SH272020 -6.10000 92.3275 DB 22 1003 -3 1006 210 40 2 153
2020140S05094 2020 27 SI WA MANGGA 2020-05-20 06:00:00 TS -6.20000 92.4000 main 880 877 O_____________ jtwc_sh SH272020 -6.20000 92.4000 TD 25 1003 -1 1006 200 40 3 143
2020140S05094 2020 27 SI WA MANGGA 2020-05-20 09:00:00 TS -6.32751 92.5000 main 877 875 P_____________ SH272020 -6.32751 92.5000 TD 27 1001 -1 1006 200 45 4 147
2020140S05094 2020 27 SI WA MANGGA 2020-05-20 12:00:00 TS -6.50000 92.6000 main 882 880 O_____________ jtwc_sh SH272020 -6.50000 92.6000 TD 30 1000 -1 1006 200 50 4 157
2020140S05094 2020 27 SI WA MANGGA 2020-05-20 15:00:00 TS -6.73500 92.6800 main 887 887 P_____________ SH272020 -6.73500 92.6800 TD 32 999 -1 1006 200 50 5 169
2020140S05094 2020 27 SI WA MANGGA 2020-05-20 18:00:00 TS -7.00000 92.7000 main 908 908 O_____________ jtwc_sh SH272020 -7.00000 92.7000 TS 35 999 0 80 185 165 175 1006 200 50 5 188
2020140S05094 2020 27 SI WA MANGGA 2020-05-20 21:00:00 TS -7.22751 92.6150 main 931 931 P_____________ SH272020 -7.22751 92.6150 TS 37 998 0 75 127 150 1006 225 60 5 202
2020140S05094 2020 27 SI WA MANGGA 2020-05-21 00:00:00 TS -7.50000 92.5000 main 962 962 O_____________ jtwc_sh SH272020 -7.50000 92.5000 TS 40 997 0 70 90 125 1006 250 70 7 198
2020140S05094 2020 27 SI WA MANGGA 2020-05-21 03:00:00 TS -7.88499 92.4051 main 1000 1000 P_____________ SH272020 -7.88499 92.4051 TS 40 997 0 1006 250 70 8 187
2020140S05094 2020 27 SI WA MANGGA 2020-05-21 06:00:00 TS -8.30000 92.4000 main 1032 1032 O_____________ jtwc_sh SH272020 -8.30000 92.4000 TS 40 997 0 1006 250 70 8 169
2020140S05094 2020 27 SI WA MANGGA 2020-05-21 09:00:00 TS -8.66501 92.5550 main 1049 1049 P_____________ SH272020 -8.66501 92.5550 TS 40 996 0 1006 250 70 8 151
2020140S05094 2020 27 SI WA MANGGA 2020-05-21 12:00:00 TS -9.00000 92.8000 main 1060 1060 O_____________ jtwc_sh SH272020 -9.00000 92.8000 TS 40 996 0 115 115 135 135 1006 250 70 8 142
2020140S05094 2020 27 SI WA MANGGA 2020-05-21 15:00:00 TS -9.29250 93.0426 main 1073 1066 P_____________ SH272020 -9.29250 93.0426 TS 40 997 0 137 85 135 137 1006 260 85 8 141
2020140S05094 2020 27 SI WA MANGGA 2020-05-21 18:00:00 TS -9.60000 93.3000 main 1080 1080 O_____________ jtwc_sh SH272020 -9.60000 93.3000 TS 40 998 0 160 55 135 140 1007 270 100 9 145
2020140S05094 2020 27 SI WA MANGGA 2020-05-21 21:00:00 TS -9.98497 93.5426 main 1105 1099 P_____________ SH272020 -9.98497 93.5426 TS 37 998 0 172 55 130 140 1006 260 100 9 148
2020140S05094 2020 27 SI WA MANGGA 2020-05-22 00:00:00 TS -10.4000 93.8000 main 1126 1126 O_____________ jtwc_sh SH272020 -10.4000 93.8000 TS 35 998 0 185 55 125 140 1005 250 100 9 146
2020140S05094 2020 27 SI WA MANGGA 2020-05-22 03:00:00 TS -10.7625 94.0852 main 1149 1144 P_____________ SH272020 -10.7625 94.0852 TS 32 999 -1 1005 250 90 10 144
2020140S05094 2020 27 SI WA MANGGA 2020-05-22 06:00:00 TS -11.2000 94.4000 main 1174 1174 O_____________ jtwc_sh SH272020 -11.2000 94.4000 TD 30 1001 -1 1005 250 80 12 148
2020140S05094 2020 27 SI WA MANGGA 2020-05-22 09:00:00 TS -11.7825 94.7352 main 1210 1202 P_____________ SH272020 -11.7825 94.7352 TD 30 1001 -1 1005 250 80 15 152
2020140S05094 2020 27 SI WA MANGGA 2020-05-22 12:00:00 TS -12.5000 95.1000 main 1238 1238 O_____________ jtwc_sh SH272020 -12.5000 95.1000 TD 30 1001 -1 1005 250 80 17 155
2020140S05094 2020 27 SI WA MANGGA 2020-05-22 15:00:00 TS -13.3198 95.4630 main 1277 1277 P_____________ SH272020 -13.3198 95.4630 TD 30 1002 -1 1007 320 95 19 155
2020140S05094 2020 27 SI WA MANGGA 2020-05-22 18:00:00 TS -14.2000 95.9000 main 1311 1310 O_____________ jtwc_sh SH272020 -14.2000 95.9000 TD 30 1003 -1 1009 390 110 20 151
2020140S05094 2020 27 SI WA MANGGA 2020-05-22 21:00:00 TS -15.0573 96.4405 main 1336 1328 P_____________ SH272020 -15.0573 96.4405 TD 30 1003 -1 1009 412 105 21 146
2020140S05094 2020 27 SI WA MANGGA 2020-05-23 00:00:00 TS -15.9000 97.1000 main 1348 1348 O_____________ jtwc_sh SH272020 -15.9000 97.1000 TD 30 1004 -1 1009 435 100 21 141
2020140S05094 2020 27 SI WA MANGGA 2020-05-23 03:00:00 TS -16.7143 97.8185 main 1370 1366 P_____________ SH272020 -16.7143 97.8185 TD 30 1003 -1 1007 372 112 22 136
2020140S05094 2020 27 SI WA MANGGA 2020-05-23 06:00:00 TS -17.5000 98.7000 main 1390 1390 O_____________ jtwc_sh SH272020 -17.5000 98.7000 TD 30 1003 -1 1006 310 125 23 130
2020140S05094 2020 27 SI WA MANGGA 2020-05-23 09:00:00 TS -18.1947 99.6674 main 1408 1383 P_____________ SH272020 -18.1947 99.6674 TD 30 1001 -1 1006 310 125 27 124
2020140S05094 2020 27 SI WA MANGGA 2020-05-23 12:00:00 TS -19.0000 101.000 main 1369 1155 O_____________ jtwc_sh SH272020 -19.0000 101.000 TD 30 999 -1 1006 310 125 36 122
2020140S05094 2020 27 SI WA MANGGA 2020-05-23 15:00:00 TS -20.0752 102.877 main 1142 900 P_____________ SH272020 -20.0752 102.877 TD 30 999 -1 1006 310 125 45 121
2020140S05094 2020 27 SI WA MANGGA 2020-05-23 18:00:00 ET -21.3000 105.100 main 888 O_____________ jtwc_sh SH272020 -21.3000 105.100 EX 30 1000 -4 1006 310 125 48 121

IBTrACS Databaseについて

本データベースは、米国NOAAが公開する1842年以降の世界の熱帯低気圧のベストトラックデータアーカイブInternational Best Track Archive for Climate Stewardship (IBTrACS)を、ウェブで閲覧しやすい形式に変換したものです。

最終更新日:2022-08-10